Time;durP1;ratioP1;P1;durP2;ratioP2;P2;SDS_P1;SDS_P2;PMS_P1;PMS_P2;Temp;Humidity;BMP_temperature;BMP_pressure;BME280_temperature;BME280_humidity;BME280_pressure;Samples;Min_cycle;Max_cycle;Signal;HPM_P1;HPM_P2
2022/06/26 00:01:39;;;;;;;1.90;1.63;;;20.90;97.40;;;;;;7384168;19;20460;-40
2022/06/26 00:04:09;;;;;;;2.00;1.53;;;20.70;97.60;;;;;;7383129;19;20403;-40
2022/06/26 00:06:41;;;;;;;2.60;1.93;;;20.60;97.60;;;;;;7383583;19;20364;-40
2022/06/26 00:09:11;;;;;;;2.87;1.83;;;20.60;97.30;;;;;;7383380;19;20415;-40
2022/06/26 00:11:40;;;;;;;1.97;1.70;;;20.20;98.90;;;;;;7386261;19;20433;-39
2022/06/26 00:14:10;;;;;;;2.20;2.00;;;20.20;98.50;;;;;;7381977;19;20408;-40
2022/06/26 00:16:39;;;;;;;2.63;2.43;;;20.10;99.10;;;;;;7380040;19;20435;-40
2022/06/26 00:19:09;;;;;;;3.20;1.97;;;20.10;99.90;;;;;;7387197;19;20371;-40
2022/06/26 00:21:41;;;;;;;3.03;1.70;;;20.30;99.10;;;;;;7383712;19;20384;-40
2022/06/26 00:24:11;;;;;;;2.20;2.00;;;20.30;99.90;;;;;;7384082;19;20431;-39
2022/06/26 00:26:40;;;;;;;2.30;1.87;;;20.20;99.90;;;;;;7385979;19;20380;-40
2022/06/26 00:29:10;;;;;;;1.77;1.60;;;20.30;99.90;;;;;;7384111;19;20491;-39
2022/06/26 00:31:39;;;;;;;1.83;1.73;;;20.20;99.90;;;;;;7387936;19;20376;-40
2022/06/26 00:34:09;;;;;;;3.30;2.00;;;20.20;99.90;;;;;;7386377;19;20419;-39
2022/06/26 00:36:41;;;;;;;2.47;1.60;;;20.30;99.90;;;;;;7383324;19;20408;-40
2022/06/26 00:39:10;;;;;;;2.60;2.40;;;20.60;99.20;;;;;;7382669;19;20716;-40
2022/06/26 00:41:40;;;;;;;3.07;2.40;;;20.70;98.60;;;;;;7382867;19;20449;-39
2022/06/26 00:44:17;;;;;;;2.30;2.10;;;20.60;98.60;;;;;;7382268;19;20471;-40
2022/06/26 00:46:47;;;;;;;4.93;1.80;;;20.60;98.80;;;;;;7372568;19;20414;-40
2022/06/26 00:49:17;;;;;;;2.73;1.93;;;20.60;95.70;;;;;;7380564;19;21014;-40
2022/06/26 00:51:52;;;;;;;4.67;1.80;;;20.90;94.20;;;;;;7374556;19;20412;-43
2022/06/26 00:54:22;;;;;;;1.70;1.60;;;21.10;93.70;;;;;;7374716;19;20376;-43
2022/06/26 00:56:54;;;;;;;1.90;1.63;;;21.40;93.00;;;;;;7362317;19;20391;-43
2022/06/26 00:59:24;;;;;;;1.67;1.57;;;21.60;93.70;;;;;;7371558;19;20927;-44
2022/06/26 01:01:54;;;;;;;1.77;1.63;;;21.80;91.70;;;;;;7361268;19;20434;-44
2022/06/26 01:04:24;;;;;;;2.03;1.80;;;21.90;91.60;;;;;;7370661;19;20499;-43
2022/06/26 01:06:57;;;;;;;2.20;1.83;;;22.10;91.00;;;;;;7360062;19;20416;-43
2022/06/26 01:09:27;;;;;;;1.97;1.77;;;22.10;90.10;;;;;;7371790;19;20455;-43
2022/06/26 01:11:56;;;;;;;2.27;1.50;;;22.30;90.10;;;;;;7374117;19;20622;-42
2022/06/26 01:14:29;;;;;;;1.50;1.40;;;22.40;88.90;;;;;;7376353;19;21160;-44
2022/06/26 01:16:59;;;;;;;2.73;2.17;;;22.40;88.20;;;;;;7375453;19;20484;-42
2022/06/26 01:19:30;;;;;;;2.97;1.87;;;22.10;89.10;;;;;;7377841;19;20383;-42
2022/06/26 01:22:02;;;;;;;1.50;1.40;;;21.80;90.20;;;;;;7377464;19;20384;-43
2022/06/26 01:24:34;;;;;;;1.63;1.53;;;21.50;91.30;;;;;;7376105;19;20739;-42
2022/06/26 01:27:05;;;;;;;1.63;1.53;;;21.50;91.70;;;;;;7376445;19;20375;-43
2022/06/26 01:29:37;;;;;;;2.27;1.77;;;21.70;91.80;;;;;;7371336;19;20416;-43
2022/06/26 01:32:08;;;;;;;5.50;1.97;;;21.70;91.00;;;;;;7373971;19;20364;-43
2022/06/26 01:34:38;;;;;;;2.20;1.57;;;21.90;90.90;;;;;;7377267;19;20377;-43
2022/06/26 01:37:10;;;;;;;3.00;1.93;;;21.80;90.80;;;;;;7378240;19;20369;-42
2022/06/26 01:39:42;;;;;;;2.03;1.80;;;21.40;92.30;;;;;;7375147;19;20431;-43
2022/06/26 01:42:11;;;;;;;3.23;1.70;;;21.50;93.20;;;;;;7377789;19;20376;-43
2022/06/26 01:44:44;;;;;;;1.97;1.40;;;21.30;94.30;;;;;;7374664;19;20385;-42
2022/06/26 01:47:14;;;;;;;1.70;1.60;;;21.40;93.80;;;;;;7373673;19;20424;-43
2022/06/26 01:49:44;;;;;;;1.53;1.40;;;21.70;93.20;;;;;;7376603;19;20368;-39
2022/06/26 01:52:15;;;;;;;2.20;2.00;;;22.00;91.80;;;;;;7378807;19;20634;-39
2022/06/26 01:54:50;;;;;;;1.77;1.60;;;22.10;91.00;;;;;;7376621;19;20384;-40
2022/06/26 01:57:21;;;;;;;2.90;2.17;;;22.20;90.80;;;;;;7371697;19;20372;-40
2022/06/26 01:59:52;;;;;;;2.43;1.90;;;22.20;90.60;;;;;;7376000;19;20703;-40
2022/06/26 02:02:24;;;;;;;4.20;1.60;;;22.30;90.30;;;;;;7377757;19;20381;-41
2022/06/26 02:04:53;;;;;;;2.57;1.80;;;22.40;90.00;;;;;;7376252;19;20429;-40
2022/06/26 02:07:23;;;;;;;2.07;1.90;;;22.50;88.70;;;;;;7375517;19;20519;-41
2022/06/26 02:15:29;;;;;;;2.27;2.07;;;22.70;87.90;;;;;;7374886;19;20771;-40
2022/06/26 02:18:01;;;;;;;3.20;1.83;;;22.70;87.60;;;;;;7375149;19;20904;-41
2022/06/26 02:20:30;;;;;;;1.90;1.80;;;22.70;88.10;;;;;;7375860;19;20970;-44
2022/06/26 02:23:00;;;;;;;2.40;1.80;;;22.70;87.40;;;;;;7376963;19;20796;-44
2022/06/26 02:25:32;;;;;;;5.80;2.07;;;22.90;87.30;;;;;;7371952;19;20391;-46
2022/06/26 02:28:05;;;;;;;2.57;1.90;;;22.60;88.50;;;;;;7372006;19;21142;-44
2022/06/26 02:30:35;;;;;;;3.20;2.00;;;22.50;89.60;;;;;;7374321;19;20405;-44
2022/06/26 02:33:05;;;;;;;1.90;1.70;;;22.00;90.90;;;;;;7368812;19;20380;-44
2022/06/26 02:35:35;;;;;;;4.07;2.37;;;21.70;92.50;;;;;;7373465;19;20892;-43
2022/06/26 02:38:04;;;;;;;5.10;2.10;;;21.30;94.80;;;;;;7371696;19;20387;-44
2022/06/26 02:40:37;;;;;;;2.33;2.00;;;21.30;95.80;;;;;;7370092;19;20413;-44
2022/06/26 02:43:06;;;;;;;2.30;2.10;;;21.10;96.70;;;;;;7371639;19;20375;-41
2022/06/26 02:45:36;;;;;;;2.00;1.80;;;21.00;97.40;;;;;;7369588;19;20357;-43
2022/06/26 02:48:06;;;;;;;2.23;1.70;;;20.90;98.20;;;;;;7369691;19;20449;-43
2022/06/26 02:50:36;;;;;;;2.33;2.13;;;20.70;98.40;;;;;;7374136;19;21048;-39
2022/06/26 02:53:05;;;;;;;3.17;2.10;;;20.50;99.40;;;;;;7374489;19;21083;-39
2022/06/26 02:55:39;;;;;;;2.87;1.70;;;20.50;99.90;;;;;;7371013;19;20459;-39
2022/06/26 02:58:09;;;;;;;2.23;1.50;;;20.30;99.90;;;;;;7346956;19;20367;-39
2022/06/26 03:00:44;;;;;;;2.60;1.83;;;20.20;99.90;;;;;;7367595;19;20435;-39
2022/06/26 03:03:14;;;;;;;2.43;2.00;;;20.50;99.90;;;;;;7371479;19;20380;-39
2022/06/26 03:05:44;;;;;;;1.63;1.53;;;20.20;99.90;;;;;;7368335;19;20998;-40
2022/06/26 03:08:16;;;;;;;2.33;1.80;;;20.40;99.90;;;;;;7369350;19;20371;-39
2022/06/26 03:10:50;;;;;;;2.33;1.70;;;20.30;99.90;;;;;;7365830;19;20430;-40
2022/06/26 03:13:20;;;;;;;1.80;1.70;;;20.50;99.90;;;;;;7371239;19;20372;-39
2022/06/26 03:15:49;;;;;;;2.10;1.77;;;20.40;99.90;;;;;;7371122;19;20424;-39
2022/06/26 03:18:21;;;;;;;2.43;2.23;;;20.30;99.90;;;;;;7369557;19;21162;-39
2022/06/26 03:20:52;;;;;;;3.23;1.77;;;20.10;99.90;;;;;;7369718;19;21819;-40
2022/06/26 03:24:00;;;;;;;2.60;2.03;;;20.30;99.90;;;;;;7373800;19;20794;-40
2022/06/26 03:26:14;;;;;;;1.70;1.60;;;20.30;99.90;;;;;;7371563;19;20384;-40
2022/06/26 03:28:44;;;;;;;2.47;2.00;;;20.20;99.90;;;;;;7366784;19;20384;-39
2022/06/26 03:31:16;;;;;;;2.80;1.90;;;20.20;99.90;;;;;;7372395;19;20908;-40
2022/06/26 03:33:48;;;;;;;2.80;2.00;;;20.30;99.90;;;;;;7373406;19;20380;-40
2022/06/26 03:36:17;;;;;;;2.67;1.97;;;20.30;99.90;;;;;;7373123;19;20376;-39
2022/06/26 03:38:47;;;;;;;1.97;1.40;;;20.20;99.90;;;;;;7366245;19;20411;-40
2022/06/26 03:41:19;;;;;;;2.10;1.90;;;20.20;99.90;;;;;;7371565;19;20416;-39
2022/06/26 03:43:49;;;;;;;2.57;1.80;;;20.00;99.90;;;;;;7366274;19;21081;-39
2022/06/26 03:46:19;;;;;;;4.33;2.10;;;19.90;99.90;;;;;;7366733;19;21589;-39
2022/06/26 03:48:49;;;;;;;2.87;1.50;;;19.80;99.90;;;;;;7371068;19;20383;-40
2022/06/26 03:51:19;;;;;;;1.60;1.50;;;19.90;99.90;;;;;;7371653;19;20392;-39
2022/06/26 03:53:51;;;;;;;1.67;1.57;;;19.90;99.90;;;;;;7368649;19;20423;-40
2022/06/26 03:56:23;;;;;;;4.00;1.50;;;20.00;99.90;;;;;;7372595;19;20467;-40
2022/06/26 03:58:53;;;;;;;1.73;1.63;;;20.10;99.90;;;;;;7365388;19;20404;-40
2022/06/26 04:01:23;;;;;;;1.70;1.40;;;20.20;99.90;;;;;;7345251;19;20416;-43
2022/06/26 04:03:56;;;;;;;1.67;1.57;;;20.00;99.90;;;;;;7344829;19;20416;-43
2022/06/26 04:06:25;;;;;;;2.60;1.30;;;20.00;99.90;;;;;;7362961;19;20384;-43
2022/06/26 04:08:55;;;;;;;2.40;1.40;;;20.00;99.90;;;;;;7354029;19;20920;-43
2022/06/26 04:11:28;;;;;;;2.20;2.00;;;20.10;99.90;;;;;;7369397;19;20399;-44
2022/06/26 04:14:01;;;;;;;1.70;1.50;;;20.20;99.90;;;;;;7359255;19;20368;-43
2022/06/26 04:16:31;;;;;;;1.30;1.20;;;20.20;99.90;;;;;;7365718;19;20391;-43
2022/06/26 04:19:03;;;;;;;1.60;1.50;;;20.00;99.90;;;;;;7362855;19;20421;-43
2022/06/26 04:21:32;;;;;;;1.53;1.30;;;20.00;99.90;;;;;;7371164;19;20416;-43
2022/06/26 04:24:02;;;;;;;1.93;1.33;;;20.00;99.90;;;;;;7366466;19;20440;-43
2022/06/26 04:26:34;;;;;;;1.30;1.20;;;19.90;99.90;;;;;;7372251;19;20379;-43
2022/06/26 04:29:03;;;;;;;2.57;1.83;;;19.90;99.90;;;;;;7374212;19;20427;-43
2022/06/26 04:31:39;;;;;;;1.60;1.50;;;19.90;99.90;;;;;;7375181;19;21344;-43
2022/06/26 04:34:09;;;;;;;3.83;1.67;;;19.90;99.90;;;;;;7370762;19;21053;-42
2022/06/26 04:36:39;;;;;;;1.50;1.40;;;20.10;99.90;;;;;;7370286;19;20364;-42
2022/06/26 04:39:09;;;;;;;1.87;1.63;;;20.10;99.90;;;;;;7376419;19;20372;-43
2022/06/26 04:41:41;;;;;;;1.73;1.47;;;20.00;99.90;;;;;;7373796;19;20423;-43
2022/06/26 04:44:12;;;;;;;1.40;1.30;;;20.00;99.90;;;;;;7373831;19;20402;-44
2022/06/26 04:46:46;;;;;;;1.33;1.23;;;20.00;99.90;;;;;;7371892;19;20781;-43
2022/06/26 04:49:16;;;;;;;1.73;1.60;;;20.00;99.90;;;;;;7365730;19;21041;-43
2022/06/26 04:51:46;;;;;;;2.73;1.40;;;20.10;99.90;;;;;;7374417;19;20365;-43
2022/06/26 04:54:33;;;;;;;1.57;1.30;;;20.00;99.90;;;;;;7370040;19;20721;-44
2022/06/26 04:57:06;;;;;;;4.30;1.50;;;20.00;99.90;;;;;;7359982;19;20415;-43
2022/06/26 04:59:36;;;;;;;1.57;1.47;;;20.00;99.90;;;;;;7369910;19;20420;-43
2022/06/26 05:02:08;;;;;;;6.00;1.20;;;20.00;99.90;;;;;;7376015;19;20372;-43
2022/06/26 05:04:58;;;;;;;2.80;1.10;;;20.10;99.90;;;;;;7378212;19;20401;-43
2022/06/26 05:07:46;;;;;;;1.47;1.30;;;20.20;99.90;;;;;;7376675;19;20443;-44
2022/06/26 05:10:18;;;;;;;1.63;1.40;;;20.30;99.90;;;;;;7369653;19;20367;-43
2022/06/26 05:13:08;;;;;;;1.10;0.90;;;20.30;99.90;;;;;;7373850;19;20394;-43
2022/06/26 05:15:52;;;;;;;1.67;1.50;;;20.40;99.90;;;;;;7371691;19;20413;-42
2022/06/26 05:18:21;;;;;;;1.10;1.00;;;20.40;99.90;;;;;;7375255;19;21312;-42
2022/06/26 05:20:51;;;;;;;2.90;1.30;;;20.50;99.90;;;;;;7373502;19;20395;-43
2022/06/26 05:23:20;;;;;;;1.50;1.20;;;20.70;99.90;;;;;;7367049;19;20722;-42
2022/06/26 05:26:02;;;;;;;1.57;1.33;;;21.30;99.90;;;;;;7363735;19;21327;-43
2022/06/26 05:28:37;;;;;;;4.47;1.70;;;21.10;99.90;;;;;;7370045;19;20411;-42
2022/06/26 05:31:07;;;;;;;1.53;1.03;;;21.10;99.90;;;;;;7371728;19;20376;-43
2022/06/26 05:33:40;;;;;;;2.70;1.47;;;21.10;99.90;;;;;;7376080;19;20946;-43
2022/06/26 05:36:12;;;;;;;1.30;1.20;;;21.20;99.90;;;;;;7372197;19;20360;-43
2022/06/26 05:38:42;;;;;;;1.43;1.33;;;21.30;99.30;;;;;;7368756;19;20375;-43
2022/06/26 05:41:12;;;;;;;3.90;2.13;;;21.60;99.00;;;;;;7360926;19;20706;-43
2022/06/26 05:43:45;;;;;;;3.60;1.57;;;21.70;98.30;;;;;;7362691;19;20372;-43
2022/06/26 05:46:16;;;;;;;3.93;2.20;;;21.90;98.50;;;;;;7360579;19;20424;-42
2022/06/26 05:48:51;;;;;;;2.00;1.77;;;21.90;98.50;;;;;;7369873;19;20376;-44
2022/06/26 05:51:41;;;;;;;2.30;2.10;;;21.80;99.30;;;;;;7365782;19;20380;-44
2022/06/26 05:54:19;;;;;;;2.07;1.87;;;21.90;98.90;;;;;;7372463;19;20484;-44
2022/06/26 05:57:17;;;;;;;2.20;2.00;;;21.90;98.80;;;;;;7367564;19;20388;-44
2022/06/26 06:00:00;;;;;;;3.00;1.77;;;21.90;98.50;;;;;;7349526;19;20368;-44
2022/06/26 06:02:48;;;;;;;1.80;1.60;;;21.80;99.00;;;;;;7366056;19;20387;-42
2022/06/26 06:05:22;;;;;;;1.97;1.43;;;21.40;99.90;;;;;;7363810;19;20478;-43
2022/06/26 06:07:52;;;;;;;1.93;1.80;;;21.40;99.90;;;;;;7363784;19;20507;-43
2022/06/26 06:10:22;;;;;;;1.83;1.70;;;21.30;99.90;;;;;;7369444;19;21045;-43
2022/06/26 06:12:53;;;;;;;2.43;1.70;;;21.20;99.90;;;;;;7359284;19;20400;-43
2022/06/26 06:15:27;;;;;;;4.53;1.90;;;21.30;99.90;;;;;;7356774;19;20375;-44
2022/06/26 06:17:59;;;;;;;2.80;1.93;;;21.40;99.90;;;;;;7337922;19;20415;-42
2022/06/26 06:20:28;;;;;;;2.33;1.93;;;21.50;99.90;;;;;;7372336;19;20392;-44
2022/06/26 06:23:04;;;;;;;1.83;1.73;;;21.50;99.80;;;;;;7366641;19;20842;-43
2022/06/26 06:25:35;;;;;;;3.03;1.57;;;21.60;96.50;;;;;;7372134;19;20435;-43
2022/06/26 06:28:08;;;;;;;1.93;1.63;;;21.70;96.90;;;;;;7362477;19;20376;-43
2022/06/26 06:30:45;;;;;;;1.30;1.20;;;21.90;96.90;;;;;;7371374;19;20364;-44
2022/06/26 06:33:21;;;;;;;1.43;1.33;;;22.20;95.20;;;;;;7370396;19;20375;-44
2022/06/26 06:35:54;;;;;;;1.53;1.43;;;22.40;94.00;;;;;;7368517;19;20379;-44
2022/06/26 06:38:25;;;;;;;1.40;1.30;;;22.60;93.70;;;;;;7344513;19;22503;-44
2022/06/26 06:40:58;;;;;;;2.10;1.30;;;22.80;92.90;;;;;;7355300;19;20376;-44
2022/06/26 06:43:50;;;;;;;2.10;1.50;;;23.00;89.40;;;;;;7374288;19;20413;-44
2022/06/26 06:46:34;;;;;;;3.80;1.67;;;23.20;89.20;;;;;;7359402;19;21096;-44
2022/06/26 06:49:18;;;;;;;2.00;1.20;;;23.30;90.20;;;;;;7369575;19;20396;-43
2022/06/26 06:51:53;;;;;;;1.73;1.50;;;23.30;90.60;;;;;;7371003;19;20746;-44
2022/06/26 06:54:23;;;;;;;1.53;1.40;;;23.40;91.20;;;;;;7372323;19;20400;-43
2022/06/26 06:56:53;;;;;;;2.00;1.60;;;23.40;88.40;;;;;;7366455;19;20950;-43
2022/06/26 06:59:23;;;;;;;2.70;1.77;;;23.70;90.30;;;;;;7363609;19;20928;-43
2022/06/26 07:01:55;;;;;;;1.47;1.37;;;23.60;88.50;;;;;;7365788;19;20761;-43
2022/06/26 07:04:25;;;;;;;2.67;1.70;;;23.40;83.00;;;;;;7360924;19;20420;-44
2022/06/26 07:06:56;;;;;;;1.50;1.30;;;23.20;88.30;;;;;;7353844;19;20372;-45
2022/06/26 07:09:26;;;;;;;1.50;1.40;;;23.40;89.10;;;;;;7361745;19;20412;-43
2022/06/26 07:11:55;;;;;;;1.70;1.60;;;23.70;88.20;;;;;;7366400;19;20413;-45
2022/06/26 07:14:25;;;;;;;2.63;1.50;;;23.70;82.90;;;;;;7367378;19;20368;-43
2022/06/26 07:16:57;;;;;;;3.20;1.70;;;24.00;81.80;;;;;;7373739;19;20376;-43
2022/06/26 07:19:27;;;;;;;1.60;1.50;;;24.00;81.50;;;;;;7362918;19;20381;-42
2022/06/26 07:22:02;;;;;;;4.80;1.60;;;24.00;83.00;;;;;;7370353;19;20376;-43
2022/06/26 07:24:31;;;;;;;1.47;1.37;;;24.20;80.80;;;;;;7356462;19;20435;-44
2022/06/26 07:27:27;;;;;;;1.40;1.30;;;24.10;74.50;;;;;;7363459;19;20383;-44
2022/06/26 07:29:57;;;;;;;1.80;1.43;;;24.00;75.80;;;;;;7352043;19;20472;-43
2022/06/26 07:32:30;;;;;;;2.30;1.47;;;24.10;78.90;;;;;;7353188;19;21421;-44
2022/06/26 07:35:00;;;;;;;2.20;1.77;;;24.20;75.70;;;;;;7368367;19;20424;-44
2022/06/26 07:37:30;;;;;;;1.80;1.70;;;24.20;77.10;;;;;;7358738;19;20400;-44
2022/06/26 07:39:59;;;;;;;2.80;1.17;;;24.40;76.10;;;;;;7366089;19;20364;-43
2022/06/26 07:42:29;;;;;;;2.23;1.80;;;24.50;76.20;;;;;;7367441;19;20435;-43
2022/06/26 07:44:59;;;;;;;2.67;1.70;;;24.70;75.60;;;;;;7369380;19;20465;-43
2022/06/26 07:47:38;;;;;;;1.93;1.80;;;24.80;74.70;;;;;;7364284;19;20906;-43
2022/06/26 07:50:16;;;;;;;2.80;1.60;;;25.00;73.70;;;;;;7364100;19;20376;-43
2022/06/26 07:52:45;;;;;;;1.77;1.50;;;25.00;73.50;;;;;;7369735;19;20438;-43
2022/06/26 07:55:16;;;;;;;1.57;1.47;;;25.10;72.50;;;;;;7359250;19;20423;-43
2022/06/26 07:57:48;;;;;;;1.63;1.43;;;25.20;72.40;;;;;;7365517;19;20408;-43
2022/06/26 08:00:18;;;;;;;2.93;1.50;;;25.20;72.20;;;;;;7360209;19;20403;-44
2022/06/26 08:02:50;;;;;;;1.50;1.40;;;25.10;71.00;;;;;;7376061;19;20399;-43
2022/06/26 08:05:20;;;;;;;1.30;1.20;;;25.20;69.50;;;;;;7369697;19;20408;-44
2022/06/26 08:07:49;;;;;;;1.30;1.13;;;25.20;68.10;;;;;;7364863;19;20380;-43
2022/06/26 08:10:19;;;;;;;4.00;1.43;;;25.20;69.80;;;;;;7372620;19;20439;-44
2022/06/26 08:12:48;;;;;;;3.00;1.60;;;25.40;67.70;;;;;;7368663;19;20397;-44
2022/06/26 08:15:20;;;;;;;2.30;1.77;;;25.50;67.70;;;;;;7355521;19;21745;-44
2022/06/26 08:17:52;;;;;;;4.97;2.27;;;25.50;68.40;;;;;;7378734;19;20436;-44
2022/06/26 08:20:21;;;;;;;2.73;1.60;;;25.70;70.00;;;;;;7374310;19;20412;-40
2022/06/26 08:22:51;;;;;;;3.60;1.97;;;25.80;68.00;;;;;;7370068;19;20419;-40
2022/06/26 08:25:21;;;;;;;3.00;1.90;;;25.90;68.20;;;;;;7354427;19;20459;-40
2022/06/26 08:27:50;;;;;;;3.27;1.53;;;25.90;68.00;;;;;;7378711;19;20380;-40
2022/06/26 08:30:20;;;;;;;3.50;1.60;;;25.90;65.90;;;;;;7376304;19;20786;-40
2022/06/26 08:32:54;;;;;;;2.23;1.47;;;25.90;66.90;;;;;;7378782;19;20419;-40
2022/06/26 08:35:23;;;;;;;2.23;1.40;;;26.00;65.70;;;;;;7361079;19;20372;-40
2022/06/26 08:37:53;;;;;;;2.53;1.67;;;26.20;65.80;;;;;;7375328;19;20409;-40
2022/06/26 08:40:26;;;;;;;1.50;1.10;;;26.20;65.30;;;;;;7365139;19;20416;-40
2022/06/26 08:42:55;;;;;;;2.17;1.30;;;26.20;63.80;;;;;;7362828;19;20420;-40
2022/06/26 08:45:25;;;;;;;1.50;1.40;;;26.40;63.90;;;;;;7359294;19;22740;-40
2022/06/26 08:47:59;;;;;;;1.10;1.00;;;26.30;61.30;;;;;;7358119;19;20574;-39
2022/06/26 08:50:32;;;;;;;2.40;1.50;;;26.20;62.60;;;;;;7366673;19;20380;-40
2022/06/26 08:53:03;;;;;;;2.23;1.20;;;26.40;62.70;;;;;;7365290;19;20906;-40
2022/06/26 08:55:33;;;;;;;1.40;1.30;;;26.60;61.10;;;;;;7362346;19;20436;-40
2022/06/26 08:58:03;;;;;;;2.03;1.10;;;26.90;59.70;;;;;;7362134;19;20433;-40
2022/06/26 09:00:33;;;;;;;1.57;1.20;;;27.10;59.50;;;;;;7362283;19;21287;-40
2022/06/26 09:03:05;;;;;;;1.00;0.80;;;27.10;59.60;;;;;;7361121;19;20388;-41
2022/06/26 09:05:35;;;;;;;1.43;0.90;;;27.30;59.30;;;;;;7376865;19;20408;-40
2022/06/26 09:08:08;;;;;;;1.50;1.40;;;27.40;59.10;;;;;;7377481;19;20412;-40
2022/06/26 09:10:38;;;;;;;1.40;1.00;;;27.40;58.80;;;;;;7378068;19;20397;-40
2022/06/26 09:13:10;;;;;;;1.40;1.30;;;27.50;57.90;;;;;;7376803;19;20380;-40
2022/06/26 09:15:42;;;;;;;2.20;1.57;;;27.60;57.20;;;;;;7380521;19;20755;-40
2022/06/26 09:18:16;;;;;;;2.03;1.43;;;27.60;57.20;;;;;;7377204;19;20443;-40
2022/06/26 09:20:56;;;;;;;1.40;1.30;;;27.60;57.10;;;;;;7380193;19;20455;-44
2022/06/26 09:23:26;;;;;;;2.27;1.10;;;27.70;56.50;;;;;;7380250;19;20384;-44
2022/06/26 09:25:55;;;;;;;2.67;1.30;;;27.90;56.20;;;;;;7381023;19;20377;-44
2022/06/26 09:28:27;;;;;;;2.00;0.97;;;27.90;56.30;;;;;;7378058;19;20376;-44
2022/06/26 09:30:59;;;;;;;1.27;1.00;;;28.00;55.70;;;;;;7380430;19;20384;-44
2022/06/26 09:33:33;;;;;;;1.07;0.90;;;28.00;55.60;;;;;;7379479;19;20450;-44
2022/06/26 09:36:05;;;;;;;1.40;1.30;;;27.90;55.10;;;;;;7379772;19;20463;-44
2022/06/26 09:38:37;;;;;;;1.40;1.30;;;28.00;55.90;;;;;;7379699;19;20376;-44
2022/06/26 09:41:09;;;;;;;1.23;1.13;;;28.00;55.40;;;;;;7380785;19;20380;-44
2022/06/26 09:43:40;;;;;;;1.30;1.10;;;28.30;55.00;;;;;;7378526;19;20416;-43
2022/06/26 09:46:11;;;;;;;1.37;1.17;;;28.30;55.00;;;;;;7378082;19;20424;-44
2022/06/26 09:48:44;;;;;;;2.13;1.00;;;28.40;54.60;;;;;;7381111;19;20389;-44
2022/06/26 09:51:15;;;;;;;1.70;1.20;;;28.50;53.80;;;;;;7379217;19;20388;-40
2022/06/26 09:53:44;;;;;;;3.93;1.20;;;28.50;53.40;;;;;;7382094;19;20413;-40
2022/06/26 09:56:13;;;;;;;1.37;1.10;;;28.60;54.00;;;;;;7378955;19;20384;-40
2022/06/26 09:58:46;;;;;;;1.10;1.00;;;28.80;53.30;;;;;;7375975;19;20483;-41
2022/06/26 10:06:50;;;;;;;1.17;1.07;;;29.00;52.40;;;;;;7378330;19;20372;-40
2022/06/26 10:09:21;;;;;;;1.23;1.00;;;28.90;53.80;;;;;;7379634;19;20416;-40
2022/06/26 10:11:54;;;;;;;1.10;1.00;;;28.90;53.10;;;;;;7380277;19;20372;-41
2022/06/26 10:14:26;;;;;;;1.30;1.20;;;28.90;53.10;;;;;;7379709;19;20906;-40
2022/06/26 10:17:12;;;;;;;1.10;1.00;;;28.70;54.00;;;;;;7379904;19;20388;-40
2022/06/26 10:19:49;;;;;;;1.20;1.10;;;28.60;53.50;;;;;;7376885;19;20372;-40
2022/06/26 10:22:21;;;;;;;1.23;1.13;;;28.80;53.50;;;;;;7379792;19;20798;-43
2022/06/26 10:24:56;;;;;;;1.67;1.57;;;28.70;53.60;;;;;;7376465;19;20395;-43
2022/06/26 10:27:29;;;;;;;2.30;1.20;;;28.80;53.50;;;;;;7379371;19;20423;-43
2022/06/26 10:30:08;;;;;;;1.10;1.00;;;29.00;52.80;;;;;;7379438;19;20404;-44
2022/06/26 10:32:38;;;;;;;1.10;1.00;;;29.30;53.00;;;;;;7378182;19;20378;-43
2022/06/26 10:35:11;;;;;;;1.00;0.90;;;29.20;52.20;;;;;;7375815;19;20409;-42
2022/06/26 10:37:46;;;;;;;1.60;1.50;;;29.40;52.20;;;;;;7378617;19;20464;-43
2022/06/26 10:42:52;;;;;;;2.10;1.30;;;28.80;59.70;;;;;;7376899;19;20780;-44
2022/06/26 10:43:06;;;;;;;4.63;1.20;;;29.00;59.80;;;;;;7378256;19;20954;-43
2022/06/26 10:45:40;;;;;;;1.37;1.27;;;29.30;57.40;;;;;;7379137;19;20360;-44
2022/06/26 10:48:21;;;;;;;2.07;1.50;;;29.50;56.20;;;;;;7377595;19;20416;-43
2022/06/26 10:51:02;;;;;;;1.70;1.10;;;29.70;55.60;;;;;;7377054;19;20453;-40
2022/06/26 10:53:34;;;;;;;2.27;1.10;;;29.70;55.20;;;;;;7379503;19;20391;-40
2022/06/26 10:56:05;;;;;;;1.20;1.03;;;29.80;55.20;;;;;;7378365;19;20402;-40
2022/06/26 10:58:38;;;;;;;1.20;1.10;;;29.70;55.80;;;;;;7375658;19;20393;-40
2022/06/26 11:01:10;;;;;;;1.20;1.10;;;29.90;55.30;;;;;;7376447;19;21140;-40
2022/06/26 11:03:41;;;;;;;1.10;1.00;;;30.00;54.80;;;;;;7378897;19;20392;-40
2022/06/26 11:06:14;;;;;;;1.23;1.13;;;30.20;53.00;;;;;;7378039;19;20376;-40
2022/06/26 11:08:47;;;;;;;1.00;0.90;;;30.40;51.30;;;;;;7376968;19;20383;-40
2022/06/26 11:11:20;;;;;;;2.10;1.23;;;30.30;54.20;;;;;;7379027;19;20417;-40
2022/06/26 11:13:54;;;;;;;1.70;1.10;;;30.00;55.40;;;;;;7377847;19;20372;-40
2022/06/26 11:16:35;;;;;;;1.10;1.00;;;29.90;57.80;;;;;;7377058;19;20421;-40
2022/06/26 11:19:06;;;;;;;1.47;1.37;;;29.50;56.30;;;;;;7377513;19;21293;-40
2022/06/26 11:21:38;;;;;;;2.20;1.13;;;29.00;55.90;;;;;;7378677;19;20804;-44
2022/06/26 11:24:08;;;;;;;1.00;0.90;;;29.00;52.90;;;;;;7375843;19;20467;-44
2022/06/26 11:26:40;;;;;;;1.60;1.10;;;29.00;52.40;;;;;;7378120;19;20392;-44
2022/06/26 11:29:11;;;;;;;1.30;1.10;;;29.00;52.10;;;;;;7377615;19;20906;-44
2022/06/26 11:31:40;;;;;;;1.53;1.20;;;29.10;51.90;;;;;;7376342;19;21038;-44
2022/06/26 11:34:13;;;;;;;1.33;1.20;;;29.20;51.10;;;;;;7378531;19;21263;-44
2022/06/26 11:36:54;;;;;;;1.13;1.03;;;29.40;51.50;;;;;;7376352;19;20388;-45
2022/06/26 11:39:24;;;;;;;1.30;1.13;;;29.30;51.20;;;;;;7376279;19;20380;-45
2022/06/26 11:41:54;;;;;;;0.97;0.90;;;29.30;51.60;;;;;;7377464;19;20403;-44
2022/06/26 11:44:23;;;;;;;1.87;1.10;;;29.20;50.80;;;;;;7375606;19;21052;-45
2022/06/26 11:46:53;;;;;;;1.70;1.17;;;29.20;51.00;;;;;;7376716;19;20934;-44
2022/06/26 11:49:26;;;;;;;2.17;0.90;;;29.20;52.30;;;;;;7378552;19;20924;-45
2022/06/26 11:52:02;;;;;;;1.20;1.10;;;29.20;51.70;;;;;;7378289;19;20409;-47
2022/06/26 11:54:31;;;;;;;1.00;0.90;;;29.40;51.50;;;;;;7375323;19;20423;-44
2022/06/26 11:57:07;;;;;;;1.37;1.10;;;29.60;50.60;;;;;;7376084;19;20488;-44
2022/06/26 11:59:43;;;;;;;2.00;1.10;;;29.80;49.90;;;;;;7373879;19;20807;-44
2022/06/26 12:02:21;;;;;;;1.40;1.17;;;30.00;50.20;;;;;;7377326;19;20408;-45
2022/06/26 12:04:59;;;;;;;1.73;1.03;;;30.10;49.90;;;;;;7377461;19;20380;-44
2022/06/26 12:07:42;;;;;;;1.57;1.40;;;30.20;49.10;;;;;;7375942;19;20420;-44
2022/06/26 12:10:12;;;;;;;1.63;1.20;;;30.40;49.00;;;;;;7378410;19;20406;-44
2022/06/26 12:12:52;;;;;;;1.67;1.27;;;30.40;48.50;;;;;;7375680;19;21006;-44
2022/06/26 12:15:21;;;;;;;1.20;1.10;;;30.50;48.30;;;;;;7376386;19;20424;-44
2022/06/26 12:17:56;;;;;;;1.50;0.90;;;30.60;48.50;;;;;;7376206;19;20376;-43
2022/06/26 12:20:26;;;;;;;1.30;1.17;;;30.80;48.20;;;;;;7371965;19;20376;-41
2022/06/26 12:22:58;;;;;;;1.20;1.10;;;30.80;47.80;;;;;;7375136;19;20639;-41
2022/06/26 12:25:30;;;;;;;2.37;1.40;;;31.00;47.80;;;;;;7372840;19;20491;-41
2022/06/26 12:28:03;;;;;;;2.00;1.53;;;31.00;47.60;;;;;;7377186;19;20391;-41
2022/06/26 12:30:34;;;;;;;2.30;1.30;;;31.10;46.50;;;;;;7375082;19;20408;-41
2022/06/26 12:33:06;;;;;;;1.43;1.17;;;31.30;47.40;;;;;;7372804;19;20995;-41
2022/06/26 12:35:37;;;;;;;1.20;0.90;;;31.00;53.20;;;;;;7375720;19;20399;-41
2022/06/26 12:38:09;;;;;;;2.17;1.10;;;31.00;46.50;;;;;;7375754;19;21148;-41
2022/06/26 12:40:39;;;;;;;3.23;1.23;;;31.10;46.70;;;;;;7373117;19;20419;-41
2022/06/26 12:43:08;;;;;;;1.20;1.10;;;31.20;46.50;;;;;;7373197;19;20372;-41
2022/06/26 12:45:40;;;;;;;1.13;0.80;;;31.30;46.40;;;;;;7376032;19;20420;-41
2022/06/26 12:48:12;;;;;;;1.27;0.87;;;31.30;46.80;;;;;;7379556;19;20419;-41
2022/06/26 12:50:41;;;;;;;1.80;0.83;;;31.30;46.50;;;;;;7381012;19;20838;-44
2022/06/26 12:53:14;;;;;;;1.50;1.13;;;31.30;46.30;;;;;;7381452;19;20453;-44
2022/06/26 12:55:45;;;;;;;2.43;1.10;;;31.30;46.10;;;;;;7381659;19;20419;-45
2022/06/26 12:58:17;;;;;;;1.00;0.90;;;31.40;46.30;;;;;;7380765;19;20381;-45
2022/06/26 13:00:47;;;;;;;1.70;1.10;;;31.50;46.50;;;;;;7377369;19;20417;-45
2022/06/26 13:03:18;;;;;;;1.10;1.00;;;31.50;46.20;;;;;;7381525;19;20364;-44
2022/06/26 13:05:48;;;;;;;1.20;0.90;;;31.20;46.70;;;;;;7381320;19;20426;-45
2022/06/26 13:08:21;;;;;;;1.00;0.90;;;31.10;46.60;;;;;;7380555;19;20416;-45
2022/06/26 13:10:51;;;;;;;1.37;0.80;;;31.10;46.80;;;;;;7383383;19;20495;-44
2022/06/26 13:13:22;;;;;;;1.20;1.10;;;31.40;46.80;;;;;;7378873;19;21910;-45
2022/06/26 13:15:51;;;;;;;1.17;1.00;;;31.20;46.70;;;;;;7380878;19;20372;-45
2022/06/26 13:18:21;;;;;;;0.77;0.77;;;31.30;47.30;;;;;;7356133;19;20432;-45
2022/06/26 13:20:50;;;;;;;1.83;1.20;;;31.30;47.00;;;;;;7378448;19;20516;-44
2022/06/26 13:23:25;;;;;;;1.97;1.30;;;31.20;47.10;;;;;;7382631;19;20412;-45
2022/06/26 13:25:55;;;;;;;1.77;1.20;;;31.20;47.50;;;;;;7379524;19;20416;-45